Time;durP1;ratioP1;P1;durP2;ratioP2;P2;SDS_P1;SDS_P2;PMS_P1;PMS_P2;Temp;Humidity;BMP_temperature;BMP_pressure;BME280_temperature;BME280_humidity;BME280_pressure;Samples;Min_cycle;Max_cycle;Signal;HPM_P1;HPM_P2
2022/03/31 00:01:02;;;;;;;20.40;11.93;;;2.10;99.90;;;;;;4991103;28;20106;-82
2022/03/31 00:03:28;;;;;;;18.75;11.70;;;2.00;99.90;;;;;;4976167;28;20019;-82
2022/03/31 00:05:53;;;;;;;16.63;11.95;;;1.90;99.90;;;;;;4975965;28;20031;-82
2022/03/31 00:08:20;;;;;;;16.90;12.45;;;1.90;99.90;;;;;;4990994;28;20461;-82
2022/03/31 00:10:53;;;;;;;15.90;8.93;;;1.80;99.90;;;;;;4975987;28;20030;-81
2022/03/31 00:13:24;;;;;;;16.02;10.57;;;1.70;99.90;;;;;;4976067;28;20042;-81
2022/03/31 00:15:50;;;;;;;13.20;10.30;;;1.70;99.90;;;;;;4975919;28;20043;-82
2022/03/31 00:18:16;;;;;;;13.25;7.80;;;1.70;99.90;;;;;;4975706;28;20026;-82
2022/03/31 00:20:42;;;;;;;13.07;8.70;;;1.60;99.90;;;;;;4975882;28;20070;-82
2022/03/31 00:23:08;;;;;;;16.92;10.95;;;1.60;99.90;;;;;;4975670;28;20027;-82
2022/03/31 00:25:34;;;;;;;14.73;9.68;;;1.50;99.90;;;;;;4975613;28;20038;-82
2022/03/31 00:28:00;;;;;;;15.05;9.88;;;1.50;99.90;;;;;;4975761;28;20493;-82
2022/03/31 00:30:26;;;;;;;15.35;11.35;;;1.50;99.90;;;;;;4975766;28;20050;-82
2022/03/31 00:32:52;;;;;;;17.38;7.72;;;1.50;99.90;;;;;;4990525;28;20062;-82
2022/03/31 00:35:18;;;;;;;10.18;7.78;;;1.40;99.90;;;;;;4975371;28;20030;-82
2022/03/31 00:37:44;;;;;;;11.43;8.57;;;1.40;99.90;;;;;;4975910;28;20042;-82
2022/03/31 00:40:12;;;;;;;14.95;10.45;;;1.40;99.90;;;;;;4975302;28;20027;-82
2022/03/31 00:42:49;;;;;;;14.45;9.88;;;1.40;99.90;;;;;;4975539;28;20507;-81
2022/03/31 00:45:20;;;;;;;15.23;9.02;;;1.30;99.90;;;;;;4975353;28;20082;-81
2022/03/31 00:47:46;;;;;;;14.57;11.07;;;1.30;99.90;;;;;;4975200;28;20031;-82
2022/03/31 00:50:13;;;;;;;11.63;9.30;;;1.40;99.90;;;;;;4990209;28;20420;-82
2022/03/31 00:52:40;;;;;;;7.97;6.80;;;1.30;99.90;;;;;;4974983;28;20385;-81
2022/03/31 00:55:09;;;;;;;12.20;10.02;;;1.30;99.90;;;;;;4975269;28;20023;-82
2022/03/31 00:57:36;;;;;;;8.73;7.28;;;1.30;99.90;;;;;;4974984;28;20031;-80
2022/03/31 01:00:08;;;;;;;13.45;8.60;;;1.30;99.90;;;;;;4975099;28;20058;-82
2022/03/31 01:02:35;;;;;;;10.68;8.68;;;1.30;99.90;;;;;;4974197;28;20030;-82
2022/03/31 01:05:02;;;;;;;9.98;8.20;;;1.30;99.90;;;;;;4974882;28;20042;-82
2022/03/31 01:07:28;;;;;;;11.48;8.48;;;1.20;99.90;;;;;;4974985;28;20027;-82
2022/03/31 01:09:56;;;;;;;13.25;8.88;;;1.20;99.90;;;;;;4974797;28;20109;-82
2022/03/31 01:12:22;;;;;;;11.27;8.80;;;1.20;99.90;;;;;;4974723;28;20153;-82
2022/03/31 01:15:06;;;;;;;11.48;8.63;;;1.20;99.90;;;;;;4989556;28;20134;-82
2022/03/31 01:17:33;;;;;;;11.95;8.18;;;1.20;99.90;;;;;;4974828;28;20166;-82
2022/03/31 01:19:58;;;;;;;15.90;9.95;;;1.20;99.90;;;;;;4974551;28;20023;-82
2022/03/31 01:22:31;;;;;;;8.52;5.88;;;1.20;99.90;;;;;;4974809;28;20038;-82
2022/03/31 01:24:58;;;;;;;12.43;9.57;;;1.20;99.90;;;;;;4974588;28;20034;-81
2022/03/31 01:27:25;;;;;;;7.85;6.07;;;1.20;99.90;;;;;;4973983;28;20019;-82
2022/03/31 01:29:51;;;;;;;12.77;9.23;;;1.20;99.90;;;;;;4973287;28;20037;-82
2022/03/31 01:32:17;;;;;;;11.48;7.90;;;1.20;99.90;;;;;;4974438;28;20019;-82
2022/03/31 01:34:42;;;;;;;15.63;10.90;;;1.20;99.90;;;;;;4974396;28;20030;-82
2022/03/31 01:37:09;;;;;;;13.35;9.43;;;1.20;99.90;;;;;;4974501;28;20022;-82
2022/03/31 01:39:35;;;;;;;10.95;7.18;;;1.20;99.90;;;;;;4974438;28;20109;-82
2022/03/31 01:42:01;;;;;;;15.20;10.07;;;1.10;99.90;;;;;;4974327;28;20065;-82
2022/03/31 01:44:27;;;;;;;17.10;10.32;;;1.20;99.90;;;;;;4974549;28;20049;-82
2022/03/31 01:46:53;;;;;;;15.20;9.90;;;1.20;99.90;;;;;;4974304;28;20156;-81
2022/03/31 01:49:19;;;;;;;17.17;10.75;;;1.20;99.90;;;;;;4974408;28;20031;-82
2022/03/31 01:51:44;;;;;;;10.52;8.13;;;1.20;99.90;;;;;;4974568;28;20022;-82
2022/03/31 01:54:10;;;;;;;15.18;10.30;;;1.20;99.90;;;;;;4989004;28;20387;-82
2022/03/31 01:56:43;;;;;;;14.55;9.68;;;1.10;99.90;;;;;;4974110;28;20062;-81
2022/03/31 01:59:09;;;;;;;;;;;1.20;99.90;;;;;;4973958;28;20023;-82
2022/03/31 02:01:34;;;;;;;10.18;8.00;;;1.20;99.90;;;;;;4974216;28;19953;-82
2022/03/31 02:04:00;;;;;;;10.65;6.75;;;1.10;99.90;;;;;;4974151;28;20031;-82
2022/03/31 02:06:26;;;;;;;12.13;8.25;;;1.10;99.90;;;;;;4974217;28;20045;-82
2022/03/31 02:08:51;;;;;;;12.02;8.98;;;1.10;99.90;;;;;;4973965;28;20027;-82
2022/03/31 02:11:17;;;;;;;17.20;11.70;;;1.10;99.90;;;;;;4989247;28;20409;-82
2022/03/31 02:13:44;;;;;;;13.73;8.07;;;1.10;99.90;;;;;;4973504;28;20479;-82
2022/03/31 02:16:10;;;;;;;14.05;8.10;;;1.00;99.90;;;;;;4991298;28;20019;-82
2022/03/31 02:18:36;;;;;;;16.98;11.73;;;1.10;99.90;;;;;;4993466;28;20031;-82
2022/03/31 02:21:01;;;;;;;14.45;9.70;;;1.10;99.90;;;;;;4993346;28;20031;-82
2022/03/31 02:23:27;;;;;;;13.93;9.68;;;1.00;99.90;;;;;;4993250;28;20153;-82
2022/03/31 02:25:53;;;;;;;13.30;9.57;;;1.00;99.90;;;;;;4993256;28;20042;-82
2022/03/31 02:28:18;;;;;;;11.50;8.10;;;1.10;99.90;;;;;;4993338;28;20030;-81
2022/03/31 02:30:44;;;;;;;14.13;9.20;;;1.10;99.90;;;;;;4993472;28;20029;-81
2022/03/31 02:33:09;;;;;;;13.02;9.05;;;1.10;99.90;;;;;;4984659;28;20034;-81
2022/03/31 02:35:35;;;;;;;13.00;9.52;;;1.10;99.90;;;;;;4973971;28;20432;-82
2022/03/31 02:38:01;;;;;;;10.30;8.10;;;1.10;99.90;;;;;;4973803;28;20027;-82
2022/03/31 02:40:27;;;;;;;14.88;9.15;;;1.00;99.90;;;;;;4976740;28;20105;-82
2022/03/31 02:42:53;;;;;;;11.27;7.63;;;1.10;99.90;;;;;;4977594;28;20038;-81
2022/03/31 02:45:19;;;;;;;10.43;8.23;;;1.00;99.90;;;;;;4977412;28;20031;-82
2022/03/31 02:47:46;;;;;;;10.68;7.80;;;1.00;99.90;;;;;;4977455;28;20030;-82
2022/03/31 02:50:13;;;;;;;10.43;8.57;;;1.10;99.90;;;;;;4977353;28;20023;-82
2022/03/31 02:55:26;;;;;;;9.52;7.28;;;1.10;99.90;;;;;;4977473;28;20520;-82
2022/03/31 02:57:53;;;;;;;10.18;8.50;;;1.00;99.90;;;;;;4977464;28;20102;-82
2022/03/31 03:00:19;;;;;;;10.43;8.52;;;1.00;99.90;;;;;;4977379;28;20054;-82
2022/03/31 03:02:45;;;;;;;10.43;7.53;;;1.00;99.90;;;;;;4976999;28;20532;-82
2022/03/31 03:05:11;;;;;;;11.00;8.10;;;1.00;99.90;;;;;;4991886;28;20125;-82
2022/03/31 03:07:36;;;;;;;10.15;7.95;;;1.00;99.90;;;;;;4977177;28;20031;-82
2022/03/31 03:10:02;;;;;;;11.50;7.72;;;1.00;99.90;;;;;;4977041;28;20034;-82
2022/03/31 03:12:28;;;;;;;12.35;8.60;;;0.90;99.90;;;;;;4976870;28;20031;-82
2022/03/31 03:14:54;;;;;;;11.98;9.73;;;1.00;99.90;;;;;;4976748;28;20098;-81
2022/03/31 03:17:19;;;;;;;14.85;9.90;;;1.00;99.90;;;;;;4977010;28;20027;-81
2022/03/31 03:19:45;;;;;;;11.18;7.10;;;1.00;99.90;;;;;;4977015;28;20039;-82
2022/03/31 03:22:11;;;;;;;12.00;9.43;;;1.00;99.90;;;;;;4976655;28;20102;-82
2022/03/31 03:24:36;;;;;;;10.52;8.63;;;1.00;99.90;;;;;;4976896;28;20393;-81
2022/03/31 03:27:02;;;;;;;13.48;9.90;;;0.90;99.90;;;;;;4991765;28;20031;-81
2022/03/31 03:29:27;;;;;;;12.50;8.15;;;0.90;99.90;;;;;;4976825;28;20479;-82
2022/03/31 03:31:53;;;;;;;9.77;7.82;;;0.90;99.90;;;;;;4976694;28;20559;-81
2022/03/31 03:34:19;;;;;;;11.98;8.50;;;0.90;99.90;;;;;;4977047;28;20484;-81
2022/03/31 03:36:45;;;;;;;10.52;8.68;;;0.90;99.90;;;;;;4976605;28;20465;-81
2022/03/31 03:39:14;;;;;;;10.35;7.90;;;0.90;99.90;;;;;;4976625;28;20100;-82
2022/03/31 03:41:40;;;;;;;9.85;7.95;;;0.90;99.90;;;;;;4976574;28;20047;-82
2022/03/31 03:44:06;;;;;;;12.30;8.57;;;0.90;99.90;;;;;;4976565;28;20510;-82
2022/03/31 03:46:31;;;;;;;11.40;7.75;;;0.90;99.90;;;;;;4976498;28;20042;-83
2022/03/31 03:48:57;;;;;;;12.93;10.60;;;0.90;99.90;;;;;;4976483;28;20027;-81
2022/03/31 03:51:24;;;;;;;11.38;8.52;;;1.00;99.90;;;;;;4976063;28;20086;-82
2022/03/31 03:53:50;;;;;;;14.20;9.98;;;0.90;99.90;;;;;;4976342;28;20030;-82
2022/03/31 03:56:16;;;;;;;14.57;10.68;;;0.90;99.90;;;;;;4976164;28;20027;-82
2022/03/31 03:58:42;;;;;;;14.00;10.35;;;0.90;99.90;;;;;;4976086;28;20428;-82
2022/03/31 04:01:08;;;;;;;13.23;9.18;;;0.90;99.90;;;;;;4976183;28;20027;-82
2022/03/31 04:03:34;;;;;;;12.90;9.73;;;0.90;99.90;;;;;;4976081;28;20397;-82
2022/03/31 04:06:00;;;;;;;14.38;10.07;;;0.80;99.90;;;;;;4975927;28;20049;-82
2022/03/31 04:08:26;;;;;;;15.82;11.18;;;0.90;99.90;;;;;;4976115;28;20027;-82
2022/03/31 04:10:51;;;;;;;9.75;7.68;;;0.80;99.90;;;;;;5001211;28;20037;-81
2022/03/31 04:13:17;;;;;;;17.10;11.90;;;0.80;99.90;;;;;;4995524;28;20069;-81
2022/03/31 04:15:43;;;;;;;16.80;12.00;;;0.80;99.90;;;;;;4995559;28;20050;-82
2022/03/31 04:18:09;;;;;;;18.55;12.63;;;0.80;99.90;;;;;;4995541;28;20018;-82
2022/03/31 04:20:35;;;;;;;18.08;12.07;;;0.80;99.90;;;;;;4995493;28;20033;-82
2022/03/31 04:23:01;;;;;;;15.35;10.85;;;0.80;99.90;;;;;;4995505;28;20030;-82
2022/03/31 04:25:27;;;;;;;15.73;11.02;;;0.70;99.90;;;;;;4995507;28;20499;-82
2022/03/31 04:27:53;;;;;;;14.55;10.43;;;0.70;99.90;;;;;;4995015;28;20052;-81
2022/03/31 04:30:21;;;;;;;15.02;11.10;;;0.70;99.90;;;;;;4995662;28;20468;-82
2022/03/31 04:32:49;;;;;;;13.93;9.85;;;0.70;99.90;;;;;;4995117;28;20025;-81
2022/03/31 04:35:16;;;;;;;14.45;10.18;;;0.70;99.90;;;;;;4995152;28;20396;-81
2022/03/31 04:37:41;;;;;;;15.40;11.20;;;0.60;99.90;;;;;;4994985;28;20542;-82
2022/03/31 04:40:09;;;;;;;16.30;10.98;;;0.70;99.90;;;;;;4995010;28;20030;-82
2022/03/31 04:42:35;;;;;;;13.07;7.63;;;0.60;99.90;;;;;;4994947;28;20068;-82
2022/03/31 04:45:02;;;;;;;15.13;10.55;;;0.60;99.90;;;;;;4993464;28;20046;-82
2022/03/31 04:47:29;;;;;;;15.30;11.50;;;0.60;99.90;;;;;;4994896;28;20022;-82
2022/03/31 04:49:54;;;;;;;14.15;10.82;;;0.60;99.90;;;;;;4994573;28;20018;-82
2022/03/31 04:52:20;;;;;;;13.25;9.68;;;0.60;99.90;;;;;;4990669;28;20053;-81
2022/03/31 04:54:47;;;;;;;14.05;9.95;;;0.60;99.90;;;;;;4975466;28;20133;-82
2022/03/31 04:57:15;;;;;;;15.68;10.55;;;0.60;99.90;;;;;;4990051;28;20095;-81
2022/03/31 04:59:41;;;;;;;9.75;7.47;;;0.60;99.90;;;;;;4982633;28;20018;-82
2022/03/31 05:02:07;;;;;;;16.38;10.93;;;0.60;99.90;;;;;;5009907;28;20037;-82
2022/03/31 05:04:33;;;;;;;14.07;10.20;;;0.60;99.90;;;;;;5014055;28;20080;-82
2022/03/31 05:06:59;;;;;;;14.98;10.48;;;0.70;99.90;;;;;;4998226;28;20061;-82
2022/03/31 05:09:24;;;;;;;15.25;11.50;;;0.70;99.90;;;;;;4994495;28;20022;-82
2022/03/31 05:11:50;;;;;;;16.33;10.85;;;0.70;99.90;;;;;;5005175;28;20029;-81
2022/03/31 05:14:15;;;;;;;13.13;9.90;;;0.70;99.90;;;;;;4997187;28;20061;-82
2022/03/31 05:16:41;;;;;;;15.35;11.75;;;0.70;99.90;;;;;;4994333;28;20369;-81
2022/03/31 05:19:06;;;;;;;15.75;11.25;;;0.70;99.90;;;;;;4973610;28;20058;-82
2022/03/31 05:21:32;;;;;;;19.35;12.48;;;0.80;99.90;;;;;;4991111;28;20388;-81
2022/03/31 05:23:58;;;;;;;16.80;11.15;;;0.80;99.90;;;;;;4974025;28;20439;-81
2022/03/31 05:26:23;;;;;;;18.27;12.48;;;0.80;99.90;;;;;;4986978;28;20507;-82
2022/03/31 05:28:49;;;;;;;16.02;11.27;;;0.80;99.90;;;;;;4974068;28;20030;-81
2022/03/31 05:31:15;;;;;;;16.08;12.23;;;0.80;99.90;;;;;;4973465;28;20062;-82
2022/03/31 05:33:40;;;;;;;16.30;11.02;;;0.80;99.90;;;;;;4973435;28;20451;-81
2022/03/31 05:36:06;;;;;;;15.40;11.20;;;0.80;99.90;;;;;;4977205;28;20158;-82
2022/03/31 05:38:32;;;;;;;18.25;12.95;;;0.80;99.90;;;;;;4991151;28;20022;-81
2022/03/31 05:40:57;;;;;;;17.85;12.15;;;0.80;99.90;;;;;;4992559;28;20030;-82
2022/03/31 05:43:23;;;;;;;16.30;11.90;;;0.80;99.90;;;;;;4991879;28;20030;-81
2022/03/31 05:45:49;;;;;;;15.55;11.52;;;0.80;99.90;;;;;;4977846;28;20043;-82
2022/03/31 05:48:15;;;;;;;15.95;11.02;;;0.80;99.90;;;;;;4988071;28;20396;-82
2022/03/31 05:50:41;;;;;;;15.88;10.90;;;0.80;99.90;;;;;;4993691;28;20018;-82
2022/03/31 05:53:06;;;;;;;12.45;9.40;;;0.90;99.90;;;;;;4991151;28;20018;-81
2022/03/31 05:55:32;;;;;;;14.43;10.57;;;0.80;99.90;;;;;;4992430;28;20030;-82
2022/03/31 05:57:58;;;;;;;14.75;11.50;;;0.90;99.90;;;;;;4993075;28;20085;-81
2022/03/31 06:00:24;;;;;;;15.20;11.23;;;0.90;99.90;;;;;;4993230;28;20038;-81
2022/03/31 06:02:52;;;;;;;14.85;10.95;;;0.90;99.90;;;;;;4992607;28;20105;-82
2022/03/31 06:05:19;;;;;;;14.35;11.23;;;1.00;99.90;;;;;;4992701;28;20030;-82
2022/03/31 06:07:45;;;;;;;12.85;9.18;;;1.00;99.90;;;;;;4987956;28;20561;-81
2022/03/31 06:10:11;;;;;;;14.20;10.32;;;1.00;99.90;;;;;;4989545;28;20026;-82
2022/03/31 06:12:37;;;;;;;17.33;14.00;;;1.00;99.90;;;;;;4991319;28;20025;-82
2022/03/31 06:15:06;;;;;;;13.80;9.00;;;1.00;99.90;;;;;;4992101;28;20574;-82
2022/03/31 06:17:32;;;;;;;12.40;8.18;;;0.90;99.90;;;;;;4989244;28;20656;-81
2022/03/31 06:19:58;;;;;;;9.82;8.60;;;0.90;99.90;;;;;;4990256;28;20122;-82
2022/03/31 06:22:23;;;;;;;10.75;8.55;;;1.00;99.90;;;;;;4976234;28;20102;-82
2022/03/31 06:24:49;;;;;;;11.80;9.52;;;1.00;99.90;;;;;;4978275;28;20035;-82
2022/03/31 06:27:14;;;;;;;13.35;9.82;;;1.00;99.90;;;;;;4977835;28;20421;-81
2022/03/31 06:29:45;;;;;;;16.15;11.27;;;1.00;99.90;;;;;;4975905;28;20045;-83
2022/03/31 06:32:12;;;;;;;14.80;11.50;;;1.00;99.90;;;;;;4976135;28;20707;-82
2022/03/31 06:34:38;;;;;;;14.77;10.73;;;1.10;99.90;;;;;;4975940;28;20559;-82
2022/03/31 06:37:04;;;;;;;13.35;10.00;;;1.10;99.90;;;;;;4976298;28;20062;-82
2022/03/31 06:39:29;;;;;;;16.38;11.40;;;1.00;99.90;;;;;;4975697;28;20026;-82
2022/03/31 06:41:55;;;;;;;17.55;12.13;;;1.00;99.90;;;;;;4975425;28;20023;-82
2022/03/31 06:44:21;;;;;;;16.15;12.23;;;1.10;99.90;;;;;;4977269;28;20504;-82
2022/03/31 06:46:47;;;;;;;17.17;12.15;;;1.10;99.90;;;;;;4977502;28;20066;-81
2022/03/31 06:49:12;;;;;;;18.20;12.30;;;1.00;99.90;;;;;;4977525;28;20507;-82
2022/03/31 06:51:38;;;;;;;17.35;13.18;;;1.00;99.90;;;;;;4977668;28;20019;-82
2022/03/31 06:54:04;;;;;;;21.98;13.00;;;1.00;99.90;;;;;;4977356;28;20436;-81
2022/03/31 06:56:31;;;;;;;18.92;12.93;;;1.00;99.90;;;;;;4977313;28;20042;-83
2022/03/31 06:58:57;;;;;;;22.40;13.55;;;1.00;99.90;;;;;;4976104;28;20027;-82
2022/03/31 07:01:24;;;;;;;21.90;14.00;;;1.00;99.90;;;;;;4977315;28;20473;-82
2022/03/31 07:03:50;;;;;;;17.58;12.88;;;1.00;99.90;;;;;;4977212;28;20026;-82
2022/03/31 07:06:16;;;;;;;21.88;14.88;;;1.10;99.90;;;;;;4977066;28;20543;-82
2022/03/31 07:08:42;;;;;;;20.60;14.70;;;1.10;99.90;;;;;;4977155;28;20157;-82
2022/03/31 07:11:09;;;;;;;18.58;12.32;;;1.20;99.90;;;;;;4977121;28;20027;-82
2022/03/31 07:13:35;;;;;;;17.88;12.82;;;1.10;99.90;;;;;;4976760;28;20544;-81
2022/03/31 07:16:01;;;;;;;18.98;12.82;;;1.10;99.90;;;;;;4977010;28;20030;-82
2022/03/31 07:18:26;;;;;;;19.77;13.68;;;1.10;99.90;;;;;;4976945;28;20023;-82
2022/03/31 07:20:52;;;;;;;16.27;11.73;;;1.10;99.90;;;;;;4976915;28;20030;-82
2022/03/31 07:23:19;;;;;;;21.48;13.85;;;1.10;99.90;;;;;;4976964;28;20038;-82
2022/03/31 07:25:45;;;;;;;22.55;16.85;;;1.20;99.90;;;;;;4975955;28;20035;-82
2022/03/31 07:28:10;;;;;;;19.63;15.00;;;1.10;99.90;;;;;;4991841;28;20029;-81
2022/03/31 07:30:36;;;;;;;18.23;12.77;;;1.20;99.90;;;;;;4976784;28;20473;-82
2022/03/31 07:33:03;;;;;;;17.45;11.88;;;1.30;99.90;;;;;;4976606;28;20429;-82
2022/03/31 07:35:31;;;;;;;20.25;14.63;;;1.20;99.90;;;;;;4976801;28;20023;-82
2022/03/31 07:37:57;;;;;;;16.45;11.57;;;1.20;99.90;;;;;;4976408;28;20035;-82
2022/03/31 07:40:25;;;;;;;18.27;11.52;;;1.30;99.90;;;;;;4976795;28;20082;-82
2022/03/31 07:42:51;;;;;;;22.33;14.55;;;1.40;99.90;;;;;;4976686;28;20030;-82
2022/03/31 07:45:18;;;;;;;21.23;13.85;;;1.50;99.90;;;;;;4976762;28;20495;-82
2022/03/31 07:47:44;;;;;;;58.70;31.90;;;1.40;99.90;;;;;;4975249;28;20035;-82
2022/03/31 07:50:13;;;;;;;19.75;13.57;;;1.50;99.90;;;;;;4976388;28;20026;-82
2022/03/31 07:52:40;;;;;;;16.00;12.32;;;1.40;99.90;;;;;;4976403;28;20031;-82
2022/03/31 07:55:07;;;;;;;21.98;12.75;;;1.50;99.90;;;;;;4976422;28;20030;-82
2022/03/31 07:57:33;;;;;;;18.27;12.63;;;1.50;99.90;;;;;;4976456;28;20453;-82
2022/03/31 07:59:59;;;;;;;29.42;17.15;;;1.60;99.90;;;;;;4975952;28;20370;-82
2022/03/31 08:02:26;;;;;;;22.17;13.55;;;1.70;99.90;;;;;;4976127;28;20102;-82
2022/03/31 08:04:55;;;;;;;17.77;11.88;;;1.70;99.90;;;;;;4975840;28;20045;-82
2022/03/31 08:07:21;;;;;;;20.27;12.52;;;1.70;99.90;;;;;;4976200;28;20026;-82
2022/03/31 08:09:47;;;;;;;18.35;12.45;;;1.70;99.90;;;;;;4974740;28;20015;-82
2022/03/31 08:12:13;;;;;;;14.15;10.52;;;1.70;99.90;;;;;;4976092;28;20543;-82
2022/03/31 08:14:38;;;;;;;16.88;12.30;;;1.70;99.90;;;;;;4975674;28;20055;-82
2022/03/31 08:17:04;;;;;;;12.90;9.75;;;1.70;99.90;;;;;;4999027;28;20038;-82
2022/03/31 08:19:30;;;;;;;15.35;11.20;;;1.70;99.90;;;;;;4995294;28;20044;-82
2022/03/31 08:21:56;;;;;;;13.68;9.70;;;1.60;99.90;;;;;;4995260;28;20026;-82
2022/03/31 08:24:23;;;;;;;19.67;11.35;;;1.70;99.90;;;;;;4995221;28;20554;-82
2022/03/31 08:26:50;;;;;;;16.17;11.30;;;1.60;99.90;;;;;;4995079;28;20034;-82
2022/03/31 08:29:16;;;;;;;16.02;11.35;;;1.70;99.90;;;;;;4993859;28;20121;-82
2022/03/31 08:31:42;;;;;;;14.90;10.57;;;1.70;99.90;;;;;;4995418;28;20030;-82
2022/03/31 08:34:09;;;;;;;16.17;10.35;;;1.70;99.90;;;;;;4994965;28;20030;-82
2022/03/31 08:36:35;;;;;;;17.98;13.27;;;1.80;99.90;;;;;;4994847;28;20026;-82
2022/03/31 08:39:03;;;;;;;18.63;11.27;;;1.80;99.90;;;;;;4995024;28;20030;-81
2022/03/31 08:41:29;;;;;;;15.98;9.90;;;1.90;99.90;;;;;;4995122;28;20073;-82
2022/03/31 08:43:55;;;;;;;14.55;10.60;;;1.90;99.90;;;;;;4993918;28;20049;-82
2022/03/31 08:46:23;;;;;;;17.02;11.15;;;1.90;99.90;;;;;;4994735;28;20038;-82
2022/03/31 08:48:48;;;;;;;19.42;11.45;;;1.90;99.90;;;;;;4994671;28;20472;-82
2022/03/31 08:51:15;;;;;;;15.15;10.80;;;1.90;99.90;;;;;;4994678;28;20034;-82
2022/03/31 08:53:40;;;;;;;16.80;11.82;;;1.80;99.90;;;;;;4994655;28;20046;-81
2022/03/31 08:56:08;;;;;;;16.35;11.45;;;1.90;99.90;;;;;;4994723;28;20177;-82
2022/03/31 08:58:34;;;;;;;18.52;11.27;;;1.90;99.90;;;;;;4994699;28;20018;-82
2022/03/31 09:01:00;;;;;;;16.40;11.27;;;1.90;99.90;;;;;;4994504;28;20499;-82
2022/03/31 09:03:36;;;;;;;22.77;13.52;;;1.90;99.90;;;;;;4994683;28;20023;-82
2022/03/31 09:06:03;;;;;;;20.25;11.05;;;2.00;99.90;;;;;;4994338;28;20065;-82
2022/03/31 09:08:30;;;;;;;16.23;11.50;;;1.90;99.90;;;;;;4994671;28;20523;-82
2022/03/31 09:11:00;;;;;;;19.40;12.80;;;1.90;99.90;;;;;;4994209;28;20476;-83
2022/03/31 09:13:28;;;;;;;19.77;11.55;;;1.90;99.90;;;;;;4994314;28;20125;-82
2022/03/31 09:16:03;;;;;;;23.70;14.60;;;1.90;99.90;;;;;;4994025;28;20104;-82
2022/03/31 09:18:30;;;;;;;19.15;12.32;;;1.90;99.90;;;;;;4994422;28;20476;-82
2022/03/31 09:20:58;;;;;;;18.88;12.32;;;1.90;99.90;;;;;;4994497;28;20523;-82
2022/03/31 09:23:29;;;;;;;20.23;12.40;;;1.80;99.90;;;;;;4994043;28;20042;-82
2022/03/31 09:26:21;;;;;;;24.02;13.55;;;1.90;99.90;;;;;;4994064;28;20113;-82
2022/03/31 09:28:47;;;;;;;18.83;11.23;;;1.90;99.90;;;;;;4993275;28;20034;-82
2022/03/31 09:31:13;;;;;;;21.83;12.93;;;1.90;99.90;;;;;;4994031;28;20021;-82
2022/03/31 09:33:40;;;;;;;19.02;13.25;;;1.90;99.90;;;;;;4994071;28;20030;-82
2022/03/31 09:36:08;;;;;;;21.75;12.55;;;1.90;99.90;;;;;;4992641;28;20113;-82
2022/03/31 09:38:38;;;;;;;19.73;13.57;;;1.90;99.90;;;;;;4993952;28;20436;-82
2022/03/31 09:41:23;;;;;;;19.90;11.52;;;1.90;99.90;;;;;;4993897;28;20376;-82
2022/03/31 09:43:50;;;;;;;18.17;13.02;;;1.90;99.90;;;;;;4992669;28;20429;-82
2022/03/31 09:46:28;;;;;;;15.90;9.80;;;2.00;99.90;;;;;;4992502;28;20038;-82
2022/03/31 09:48:55;;;;;;;18.42;12.15;;;1.90;99.90;;;;;;4993436;28;20014;-82
2022/03/31 09:51:22;;;;;;;16.23;10.98;;;1.90;99.90;;;;;;4993629;28;20073;-82
2022/03/31 09:53:49;;;;;;;18.35;11.63;;;1.90;99.90;;;;;;4993766;28;20030;-82
2022/03/31 09:56:22;;;;;;;19.27;12.48;;;1.90;99.90;;;;;;4992229;28;20073;-83
2022/03/31 09:58:49;;;;;;;17.25;12.55;;;2.00;99.90;;;;;;4993827;28;20023;-82
2022/03/31 10:01:16;;;;;;;19.10;12.15;;;2.00;99.90;;;;;;4993481;28;20484;-82
2022/03/31 10:03:42;;;;;;;17.48;12.45;;;1.90;99.90;;;;;;4993702;28;20545;-82
2022/03/31 10:06:08;;;;;;;19.25;13.05;;;2.00;99.90;;;;;;4993244;28;20038;-83
2022/03/31 10:08:40;;;;;;;19.40;12.90;;;2.00;99.90;;;;;;4993706;28;20532;-82
2022/03/31 10:11:06;;;;;;;16.63;11.00;;;2.00;99.90;;;;;;4993582;28;20034;-82
2022/03/31 10:13:45;;;;;;;19.15;13.30;;;1.90;99.90;;;;;;4993419;28;20019;-82
2022/03/31 10:16:17;;;;;;;16.65;11.13;;;1.90;99.90;;;;;;4993569;28;20097;-82
2022/03/31 10:18:47;;;;;;;21.55;11.77;;;1.90;99.90;;;;;;4993553;28;20022;-82
2022/03/31 10:21:13;;;;;;;18.10;11.35;;;1.90;99.90;;;;;;4992500;28;20057;-82
2022/03/31 10:26:33;;;;;;;21.38;13.60;;;1.80;99.90;;;;;;4993212;28;20077;-82
2022/03/31 10:29:09;;;;;;;20.75;14.25;;;1.90;99.90;;;;;;4993410;28;20101;-82
2022/03/31 10:31:43;;;;;;;19.67;12.98;;;1.80;99.90;;;;;;4993495;28;20153;-82
2022/03/31 10:34:11;;;;;;;16.83;12.60;;;1.90;99.90;;;;;;4993479;28;20029;-82
2022/03/31 10:36:47;;;;;;;21.45;13.90;;;1.80;99.90;;;;;;4993195;28;20018;-82
2022/03/31 10:39:21;;;;;;;22.13;13.75;;;1.80;99.90;;;;;;4993395;28;20049;-81
2022/03/31 10:41:48;;;;;;;18.95;13.00;;;1.80;99.90;;;;;;4993510;28;20026;-82
2022/03/31 10:44:14;;;;;;;18.30;12.25;;;1.80;99.90;;;;;;4993296;28;20496;-82
2022/03/31 10:46:43;;;;;;;21.65;13.63;;;1.80;99.90;;;;;;4993154;28;20137;-82
2022/03/31 10:49:12;;;;;;;21.83;13.35;;;1.80;99.90;;;;;;4993163;28;20026;-82
2022/03/31 10:51:40;;;;;;;20.33;14.00;;;1.80;99.90;;;;;;4992663;28;20034;-82
2022/03/31 10:54:09;;;;;;;22.55;14.23;;;1.80;99.90;;;;;;4993090;28;20443;-82
2022/03/31 10:56:35;;;;;;;21.27;13.80;;;1.90;99.90;;;;;;4993301;28;20030;-83
2022/03/31 10:59:03;;;;;;;17.42;10.88;;;1.90;99.90;;;;;;4993114;28;20093;-82
2022/03/31 11:01:37;;;;;;;21.95;14.23;;;1.80;99.90;;;;;;4995932;28;20077;-82
2022/03/31 11:04:08;;;;;;;22.40;14.93;;;1.80;99.90;;;;;;4996685;28;20034;-82
2022/03/31 11:06:51;;;;;;;22.52;14.95;;;1.90;99.90;;;;;;4995307;28;20116;-82
2022/03/31 11:09:29;;;;;;;24.35;14.63;;;1.90;99.90;;;;;;4995448;28;20076;-82
2022/03/31 11:11:56;;;;;;;24.67;15.55;;;1.90;99.90;;;;;;4996693;28;20054;-82
2022/03/31 11:14:23;;;;;;;22.67;14.23;;;1.90;99.90;;;;;;4995031;28;20054;-82
2022/03/31 11:16:48;;;;;;;23.30;13.55;;;1.90;99.90;;;;;;4996558;28;20026;-82
2022/03/31 11:19:17;;;;;;;27.83;15.90;;;1.90;99.90;;;;;;4996450;28;20038;-83
2022/03/31 11:21:43;;;;;;;26.27;15.73;;;1.90;99.90;;;;;;4996159;28;20092;-82
2022/03/31 11:24:10;;;;;;;22.10;13.65;;;1.90;99.90;;;;;;4996476;28;20365;-82
2022/03/31 11:26:41;;;;;;;25.42;17.08;;;2.00;99.90;;;;;;4996524;28;20506;-82
2022/03/31 11:29:12;;;;;;;30.25;17.45;;;1.90;99.90;;;;;;4996238;28;20056;-82
2022/03/31 11:31:46;;;;;;;30.15;16.50;;;1.90;99.90;;;;;;4996027;28;20022;-83
2022/03/31 11:34:22;;;;;;;22.48;15.95;;;1.90;99.90;;;;;;4995000;28;20030;-82
2022/03/31 11:36:48;;;;;;;25.25;16.50;;;2.00;99.90;;;;;;4996239;28;20056;-82
2022/03/31 11:39:14;;;;;;;28.08;17.33;;;2.00;99.90;;;;;;4996133;28;20026;-82
2022/03/31 11:41:41;;;;;;;28.52;15.73;;;2.00;99.90;;;;;;4996099;28;20033;-82
2022/03/31 11:44:07;;;;;;;26.77;16.75;;;2.00;99.90;;;;;;4995920;28;20026;-82
2022/03/31 11:46:41;;;;;;;27.92;17.67;;;2.00;99.90;;;;;;4995939;28;20043;-83
2022/03/31 11:49:21;;;;;;;25.42;15.13;;;2.00;99.90;;;;;;4994673;28;20025;-82
2022/03/31 11:51:49;;;;;;;25.13;15.45;;;1.90;99.90;;;;;;4994728;28;20510;-82
2022/03/31 11:54:15;;;;;;;23.20;14.30;;;1.80;99.90;;;;;;4996175;28;20030;-82
2022/03/31 11:56:40;;;;;;;27.45;16.35;;;1.80;99.90;;;;;;4995643;28;20031;-82
2022/03/31 11:59:06;;;;;;;20.65;14.05;;;1.80;99.90;;;;;;4995677;28;20038;-82
2022/03/31 12:01:43;;;;;;;19.63;12.35;;;1.80;99.90;;;;;;4994688;28;20063;-82
2022/03/31 12:04:26;;;;;;;26.50;15.23;;;1.70;99.90;;;;;;4994416;28;20019;-82
2022/03/31 12:06:54;;;;;;;26.00;15.48;;;1.70;99.90;;;;;;4994087;28;20044;-82
2022/03/31 12:09:20;;;;;;;30.90;16.00;;;1.70;99.90;;;;;;4995575;28;20465;-82
2022/03/31 12:11:48;;;;;;;27.27;15.20;;;1.70;99.90;;;;;;4995135;28;20027;-82
2022/03/31 12:14:14;;;;;;;29.83;16.20;;;1.70;99.90;;;;;;4995182;28;20054;-82
2022/03/31 12:16:49;;;;;;;29.65;17.05;;;1.70;99.90;;;;;;4995509;28;20030;-82
2022/03/31 12:19:16;;;;;;;32.38;18.55;;;1.70;99.90;;;;;;4994129;28;20511;-82
2022/03/31 12:22:09;;;;;;;26.65;15.93;;;1.80;99.90;;;;;;4995054;28;20037;-82
2022/03/31 12:24:52;;;;;;;23.65;14.13;;;1.70;99.90;;;;;;4994453;28;20082;-82
2022/03/31 12:27:18;;;;;;;;;;;1.60;99.90;;;;;;4995372;28;20037;-81
2022/03/31 12:29:44;;;;;;;28.15;16.23;;;1.60;99.90;;;;;;4995231;28;19906;-82
2022/03/31 12:32:12;;;;;;;27.73;18.13;;;1.60;99.90;;;;;;4995007;28;20150;-82
2022/03/31 12:34:51;;;;;;;32.60;18.38;;;1.70;99.90;;;;;;4995054;28;20018;-82
2022/03/31 12:37:30;;;;;;;23.38;11.02;;;1.70;99.90;;;;;;4994761;28;20112;-82
2022/03/31 12:39:56;;;;;;;30.92;16.23;;;1.60;99.90;;;;;;4994832;28;20027;-82
2022/03/31 12:42:22;;;;;;;22.08;13.73;;;1.60;99.90;;;;;;4995035;28;20057;-81
2022/03/31 12:44:47;;;;;;;25.92;13.82;;;1.50;99.90;;;;;;4994798;28;20109;-82
2022/03/31 12:47:20;;;;;;;26.08;16.95;;;1.50;99.90;;;;;;4994830;28;20085;-82